Time;durP1;ratioP1;P1;durP2;ratioP2;P2;SDS_P1;SDS_P2;PMS_P1;PMS_P2;Temp;Humidity;BMP_temperature;BMP_pressure;BME280_temperature;BME280_humidity;BME280_pressure;Samples;Min_cycle;Max_cycle;Signal;HPM_P1;HPM_P2
2021/07/12 00:01:50;;;;;;;3.97;2.58;;;;;;;;;;6096949;23;20384;-64
2021/07/12 00:04:15;;;;;;;2.45;2.30;;;;;;;;;;6096273;23;20007;-64
2021/07/12 00:06:41;;;;;;;2.55;2.35;;;;;;;;;;6097505;23;20085;-64
2021/07/12 00:09:06;;;;;;;2.55;2.33;;;;;;;;;;6096825;23;20006;-64
2021/07/12 00:11:32;;;;;;;2.55;2.35;;;;;;;;;;6096954;23;20006;-65
2021/07/12 00:13:58;;;;;;;2.75;2.55;;;;;;;;;;6096998;23;20551;-65
2021/07/12 00:16:23;;;;;;;2.70;2.55;;;;;;;;;;6097007;23;20006;-65
2021/07/12 00:18:49;;;;;;;3.10;2.72;;;;;;;;;;6096955;23;19994;-65
2021/07/12 00:21:15;;;;;;;3.08;2.65;;;;;;;;;;6098295;23;20343;-65
2021/07/12 00:23:40;;;;;;;2.65;2.40;;;;;;;;;;6097404;23;20007;-65
2021/07/12 00:26:07;;;;;;;2.67;2.47;;;;;;;;;;6097454;23;20105;-65
2021/07/12 00:28:32;;;;;;;3.63;2.53;;;;;;;;;;6121767;23;19998;-65
2021/07/12 00:30:58;;;;;;;2.83;2.55;;;;;;;;;;6098830;23;20016;-71
2021/07/12 00:33:24;;;;;;;5.35;2.58;;;;;;;;;;6098902;23;19999;-71
2021/07/12 00:35:50;;;;;;;3.22;2.42;;;;;;;;;;6098993;23;20457;-71
2021/07/12 00:38:18;;;;;;;2.78;2.47;;;;;;;;;;6097586;23;20069;-71
2021/07/12 00:40:45;;;;;;;2.83;2.60;;;;;;;;;;6098898;23;20062;-71
2021/07/12 00:43:10;;;;;;;3.53;2.97;;;;;;;;;;6097223;23;19998;-65
2021/07/12 00:45:36;;;;;;;2.67;2.55;;;;;;;;;;6097565;23;20018;-65
2021/07/12 00:48:05;;;;;;;2.60;2.50;;;;;;;;;;6097298;23;20362;-66
2021/07/12 00:50:32;;;;;;;2.97;2.67;;;;;;;;;;6121433;23;20011;-65
2021/07/12 00:53:00;;;;;;;3.23;2.77;;;;;;;;;;6097286;23;19999;-66
2021/07/12 00:55:30;;;;;;;2.60;2.40;;;;;;;;;;6121457;23;20089;-66
2021/07/12 00:57:57;;;;;;;3.97;2.55;;;;;;;;;;6096985;23;20342;-67
2021/07/12 01:00:25;;;;;;;6.32;2.75;;;;;;;;;;6098156;23;20019;-70
2021/07/12 01:02:51;;;;;;;3.45;2.80;;;;;;;;;;6098528;23;20033;-71
2021/07/12 01:05:20;;;;;;;2.65;2.45;;;;;;;;;;6121544;23;20038;-71
2021/07/12 01:07:50;;;;;;;3.03;2.83;;;;;;;;;;6097035;23;20010;-70
2021/07/12 01:10:17;;;;;;;2.90;2.70;;;;;;;;;;6121369;23;20387;-70
2021/07/12 01:13:07;;;;;;;3.78;2.50;;;;;;;;;;6096894;23;20044;-70
2021/07/12 01:15:35;;;;;;;2.53;2.30;;;;;;;;;;6097153;23;20002;-70
2021/07/12 01:18:20;;;;;;;2.28;2.17;;;;;;;;;;6096983;23;20443;-70
2021/07/12 01:20:57;;;;;;;2.53;2.33;;;;;;;;;;6098434;23;20037;-70
2021/07/12 01:23:41;;;;;;;2.53;2.33;;;;;;;;;;6098471;23;20010;-70
2021/07/12 01:26:25;;;;;;;2.05;1.92;;;;;;;;;;6097176;23;20336;-70
2021/07/12 01:28:51;;;;;;;2.88;2.70;;;;;;;;;;6098527;23;20018;-70
2021/07/12 01:31:23;;;;;;;2.42;2.20;;;;;;;;;;6096564;23;20006;-70
2021/07/12 01:33:55;;;;;;;3.45;2.25;;;;;;;;;;6096736;23;20007;-70
2021/07/12 01:36:25;;;;;;;2.47;2.30;;;;;;;;;;6096638;23;20017;-70
2021/07/12 01:38:59;;;;;;;2.95;2.50;;;;;;;;;;6096648;23;20002;-70
2021/07/12 01:41:27;;;;;;;2.72;2.53;;;;;;;;;;6098386;23;20017;-70
2021/07/12 01:44:20;;;;;;;2.90;2.70;;;;;;;;;;6096692;23;20013;-70
2021/07/12 01:46:47;;;;;;;2.97;2.67;;;;;;;;;;6096728;23;20018;-70
2021/07/12 01:49:18;;;;;;;2.80;2.60;;;;;;;;;;6096730;23;20008;-70
2021/07/12 01:51:56;;;;;;;2.70;2.60;;;;;;;;;;6120807;23;20011;-70
2021/07/12 01:54:32;;;;;;;2.97;2.75;;;;;;;;;;6098084;23;20030;-70
2021/07/12 01:57:05;;;;;;;2.40;2.30;;;;;;;;;;6100663;23;20045;-70
2021/07/12 02:00:01;;;;;;;2.20;2.10;;;;;;;;;;6125757;23;20416;-70
2021/07/12 02:02:34;;;;;;;2.30;2.20;;;;;;;;;;6111185;23;20324;-70
2021/07/12 02:05:11;;;;;;;2.38;2.17;;;;;;;;;;6101241;23;20089;-66
2021/07/12 02:07:38;;;;;;;2.45;2.22;;;;;;;;;;6101206;23;20534;-65
2021/07/12 02:10:06;;;;;;;3.08;2.28;;;;;;;;;;6125631;23;20002;-64
2021/07/12 02:12:42;;;;;;;4.85;2.70;;;;;;;;;;6101326;23;20339;-65
2021/07/12 02:15:09;;;;;;;3.17;2.97;;;;;;;;;;6125563;23;20203;-65
2021/07/12 02:17:38;;;;;;;2.85;2.30;;;;;;;;;;6127175;23;20021;-66
2021/07/12 02:20:06;;;;;;;3.17;2.92;;;;;;;;;;6125596;23;20005;-70
2021/07/12 02:22:34;;;;;;;3.60;2.92;;;;;;;;;;6101242;23;20002;-70
2021/07/12 02:25:06;;;;;;;3.75;2.75;;;;;;;;;;6101129;23;20500;-71
2021/07/12 02:27:35;;;;;;;5.43;2.70;;;;;;;;;;6125634;23;20002;-71
2021/07/12 02:30:02;;;;;;;3.47;3.15;;;;;;;;;;6101013;23;20002;-71
2021/07/12 02:32:29;;;;;;;3.58;2.97;;;;;;;;;;6101002;23;20395;-71
2021/07/12 02:35:00;;;;;;;4.15;2.47;;;;;;;;;;6125340;23;20005;-71
2021/07/12 02:37:37;;;;;;;2.78;2.55;;;;;;;;;;6125554;23;20009;-71
2021/07/12 02:40:07;;;;;;;2.88;2.70;;;;;;;;;;6100991;23;20002;-71
2021/07/12 02:42:36;;;;;;;3.72;2.53;;;;;;;;;;6100936;23;20085;-71
2021/07/12 02:45:03;;;;;;;4.50;2.53;;;;;;;;;;6100491;23;20002;-71
2021/07/12 02:47:29;;;;;;;3.13;2.83;;;;;;;;;;6100797;23;20028;-71
2021/07/12 02:49:55;;;;;;;3.55;3.17;;;;;;;;;;6100491;23;20057;-71
2021/07/12 02:52:25;;;;;;;4.03;2.83;;;;;;;;;;6126763;23;19994;-66
2021/07/12 02:54:58;;;;;;;4.03;2.58;;;;;;;;;;6125487;23;20006;-66
2021/07/12 02:57:24;;;;;;;3.05;2.80;;;;;;;;;;6126293;23;20461;-64
2021/07/12 02:59:51;;;;;;;3.05;2.75;;;;;;;;;;6126562;23;20009;-64
2021/07/12 03:02:16;;;;;;;4.40;2.97;;;;;;;;;;6126869;23;20430;-64
2021/07/12 03:04:42;;;;;;;3.65;3.03;;;;;;;;;;6101026;23;20002;-64
2021/07/12 03:07:24;;;;;;;3.28;2.72;;;;;;;;;;6100987;23;20342;-64
2021/07/12 03:09:54;;;;;;;3.10;2.55;;;;;;;;;;6127136;23;20006;-64
2021/07/12 03:12:29;;;;;;;2.78;2.55;;;;;;;;;;6101063;23;20017;-66
2021/07/12 03:15:08;;;;;;;3.03;2.83;;;;;;;;;;6101116;23;20411;-66
2021/07/12 03:17:39;;;;;;;2.33;2.22;;;;;;;;;;6126972;23;20058;-66
2021/07/12 03:20:08;;;;;;;3.58;2.72;;;;;;;;;;6100954;23;20010;-66
2021/07/12 03:22:36;;;;;;;3.30;3.00;;;;;;;;;;6127069;23;20315;-65
2021/07/12 03:25:04;;;;;;;3.30;2.95;;;;;;;;;;6100743;23;20013;-66
2021/07/12 03:27:31;;;;;;;3.08;2.85;;;;;;;;;;6125293;23;20028;-66
2021/07/12 03:30:00;;;;;;;3.90;3.03;;;;;;;;;;6100725;23;20030;-64
2021/07/12 03:32:30;;;;;;;4.07;3.30;;;;;;;;;;6100659;23;20419;-65
2021/07/12 03:35:04;;;;;;;3.55;3.22;;;;;;;;;;6125248;23;20009;-70
2021/07/12 03:37:38;;;;;;;6.28;3.50;;;;;;;;;;6100608;23;20093;-70
2021/07/12 03:40:12;;;;;;;4.00;3.58;;;;;;;;;;6126655;23;20009;-70
2021/07/12 03:42:39;;;;;;;3.58;3.35;;;;;;;;;;6100395;23;20323;-69
2021/07/12 03:45:07;;;;;;;4.72;3.28;;;;;;;;;;6101279;23;20002;-70
2021/07/12 03:47:35;;;;;;;3.72;3.47;;;;;;;;;;6126702;23;20006;-69
2021/07/12 03:50:11;;;;;;;3.03;2.78;;;;;;;;;;6100372;23;20371;-70
2021/07/12 03:52:51;;;;;;;3.20;2.88;;;;;;;;;;6126430;23;20013;-69
2021/07/12 03:55:21;;;;;;;3.53;2.90;;;;;;;;;;6126320;23;20339;-63
2021/07/12 03:57:46;;;;;;;;;;;;;;;;;;6126435;23;20014;-63
2021/07/12 04:00:14;;;;;;;5.78;4.65;;;;;;;;;;6126196;23;19905;-70
2021/07/12 04:02:41;;;;;;;8.68;4.90;;;;;;;;;;6100622;23;20534;-63
2021/07/12 04:05:07;;;;;;;4.15;3.85;;;;;;;;;;6126233;23;20038;-63
2021/07/12 04:07:34;;;;;;;6.47;3.72;;;;;;;;;;6125666;23;20005;-63
2021/07/12 04:09:59;;;;;;;5.22;4.05;;;;;;;;;;6125923;23;20025;-63
2021/07/12 04:12:25;;;;;;;4.32;3.95;;;;;;;;;;6126018;23;19998;-63
2021/07/12 04:14:51;;;;;;;4.78;3.95;;;;;;;;;;6126554;23;20010;-63
2021/07/12 04:17:18;;;;;;;3.75;3.45;;;;;;;;;;6100979;23;20417;-63
2021/07/12 04:19:44;;;;;;;5.28;4.55;;;;;;;;;;6126577;23;20006;-65
2021/07/12 04:22:10;;;;;;;8.05;4.28;;;;;;;;;;6126332;23;20009;-65
2021/07/12 04:24:36;;;;;;;4.13;3.85;;;;;;;;;;6126461;23;20453;-65
2021/07/12 04:27:01;;;;;;;15.27;4.70;;;;;;;;;;6125824;23;20002;-65
2021/07/12 04:29:27;;;;;;;4.20;3.85;;;;;;;;;;6100442;23;20009;-65
2021/07/12 04:31:52;;;;;;;4.32;4.00;;;;;;;;;;6126406;23;20005;-65
2021/07/12 04:34:18;;;;;;;5.05;3.90;;;;;;;;;;6126398;23;20005;-66
2021/07/12 04:36:44;;;;;;;5.30;4.00;;;;;;;;;;6126425;23;20418;-65
2021/07/12 04:39:12;;;;;;;4.93;3.95;;;;;;;;;;6124510;23;20010;-65
2021/07/12 04:41:40;;;;;;;6.40;4.47;;;;;;;;;;6126152;23;20033;-65
2021/07/12 04:44:14;;;;;;;4.65;4.05;;;;;;;;;;6100319;23;20014;-65
2021/07/12 04:46:41;;;;;;;5.03;4.03;;;;;;;;;;6100302;23;20093;-65
2021/07/12 04:49:07;;;;;;;4.25;3.78;;;;;;;;;;6126142;23;20048;-65
2021/07/12 04:51:32;;;;;;;5.32;3.83;;;;;;;;;;6126061;23;20426;-65
2021/07/12 04:53:59;;;;;;;6.63;4.10;;;;;;;;;;6126256;23;20026;-65
2021/07/12 04:56:24;;;;;;;4.35;4.05;;;;;;;;;;6125645;23;20315;-66
2021/07/12 04:58:51;;;;;;;4.55;3.85;;;;;;;;;;6126378;23;20090;-66
2021/07/12 05:01:17;;;;;;;6.32;4.40;;;;;;;;;;6126242;23;20017;-65
2021/07/12 05:03:42;;;;;;;9.18;4.55;;;;;;;;;;6124734;23;20418;-65
2021/07/12 05:06:08;;;;;;;4.85;4.32;;;;;;;;;;6126168;23;20316;-67
2021/07/12 05:08:36;;;;;;;4.70;4.30;;;;;;;;;;6126243;23;20145;-68
2021/07/12 05:11:02;;;;;;;5.13;4.63;;;;;;;;;;6101832;23;20014;-67
2021/07/12 05:13:31;;;;;;;5.22;4.30;;;;;;;;;;6127962;23;20081;-67
2021/07/12 05:15:57;;;;;;;4.57;4.18;;;;;;;;;;6127794;23;20002;-67
2021/07/12 05:18:22;;;;;;;4.88;4.45;;;;;;;;;;6127966;23;19998;-68
2021/07/12 05:20:48;;;;;;;5.10;4.68;;;;;;;;;;6126295;23;20014;-67
2021/07/12 05:23:13;;;;;;;5.30;4.90;;;;;;;;;;6127783;23;20070;-68
2021/07/12 05:25:39;;;;;;;7.95;5.00;;;;;;;;;;6127819;23;20014;-67
2021/07/12 05:28:05;;;;;;;4.57;4.28;;;;;;;;;;6127823;23;20025;-68
2021/07/12 05:30:31;;;;;;;4.32;3.83;;;;;;;;;;6127478;23;20312;-68
2021/07/12 05:32:56;;;;;;;4.60;4.28;;;;;;;;;;6127197;23;20005;-69
2021/07/12 05:35:23;;;;;;;5.20;3.58;;;;;;;;;;6126419;23;20316;-68
2021/07/12 05:37:48;;;;;;;4.40;4.03;;;;;;;;;;6127586;23;19998;-68
2021/07/12 05:40:14;;;;;;;4.43;4.07;;;;;;;;;;6127649;23;20434;-68
2021/07/12 05:42:39;;;;;;;4.55;4.18;;;;;;;;;;6127516;23;20081;-67
2021/07/12 05:45:05;;;;;;;4.72;3.75;;;;;;;;;;6127517;23;20453;-66
2021/07/12 05:47:31;;;;;;;6.97;4.20;;;;;;;;;;6127545;23;19997;-66
2021/07/12 05:49:56;;;;;;;5.60;4.50;;;;;;;;;;6127440;23;20065;-67
2021/07/12 05:52:22;;;;;;;5.45;4.93;;;;;;;;;;6127368;23;20073;-67
2021/07/12 05:54:47;;;;;;;6.45;4.65;;;;;;;;;;6127376;23;20093;-67
2021/07/12 05:57:13;;;;;;;5.82;5.15;;;;;;;;;;6120326;23;20021;-67
2021/07/12 05:59:38;;;;;;;8.02;6.25;;;;;;;;;;6098127;23;20010;-67
2021/07/12 06:02:04;;;;;;;9.85;6.18;;;;;;;;;;6098218;23;20077;-67
2021/07/12 06:04:30;;;;;;;11.65;6.65;;;;;;;;;;6098186;23;20438;-67
2021/07/12 06:06:55;;;;;;;10.38;7.90;;;;;;;;;;6096525;23;19998;-67
2021/07/12 06:09:21;;;;;;;9.93;7.05;;;;;;;;;;6120923;23;20442;-67
2021/07/12 06:11:46;;;;;;;10.77;9.32;;;;;;;;;;6097929;23;20375;-67
2021/07/12 06:14:12;;;;;;;13.02;10.07;;;;;;;;;;6098033;23;20009;-67
2021/07/12 06:16:37;;;;;;;15.60;10.95;;;;;;;;;;6098196;23;19998;-67
2021/07/12 06:19:03;;;;;;;15.07;10.77;;;;;;;;;;6097964;23;20427;-67
2021/07/12 06:21:28;;;;;;;16.70;12.30;;;;;;;;;;6097965;23;20335;-67
2021/07/12 06:23:54;;;;;;;15.52;11.52;;;;;;;;;;6098010;23;20037;-67
2021/07/12 06:26:19;;;;;;;18.45;13.68;;;;;;;;;;6097957;23;20022;-67
2021/07/12 06:28:45;;;;;;;18.17;13.50;;;;;;;;;;6097250;23;20481;-67
2021/07/12 06:31:10;;;;;;;23.23;16.30;;;;;;;;;;6096205;23;20026;-67
2021/07/12 06:33:36;;;;;;;16.48;12.77;;;;;;;;;;6097934;23;20002;-67
2021/07/12 06:36:02;;;;;;;16.70;13.57;;;;;;;;;;6096508;23;19998;-67
2021/07/12 06:38:31;;;;;;;19.02;14.15;;;;;;;;;;6098127;23;20312;-67
2021/07/12 06:40:57;;;;;;;17.08;14.20;;;;;;;;;;6096383;23;20008;-67
2021/07/12 06:43:22;;;;;;;19.58;14.25;;;;;;;;;;6097810;23;20077;-67
2021/07/12 06:45:48;;;;;;;19.10;13.80;;;;;;;;;;6097690;23;20554;-67
2021/07/12 06:48:13;;;;;;;15.88;13.98;;;;;;;;;;6097646;23;20335;-67
2021/07/12 06:50:39;;;;;;;19.13;14.65;;;;;;;;;;6097619;23;20343;-67
2021/07/12 06:53:04;;;;;;;16.95;14.18;;;;;;;;;;6120597;23;20013;-67
2021/07/12 06:55:30;;;;;;;26.42;18.17;;;;;;;;;;6096288;23;20009;-67
2021/07/12 06:57:56;;;;;;;22.38;17.45;;;;;;;;;;6120581;23;20088;-67
2021/07/12 07:00:22;;;;;;;18.10;13.75;;;;;;;;;;6125232;23;20085;-67
2021/07/12 07:03:00;;;;;;;23.73;15.48;;;;;;;;;;6127071;23;20088;-67
2021/07/12 07:05:27;;;;;;;18.30;14.50;;;;;;;;;;6125278;23;20010;-67
2021/07/12 07:07:53;;;;;;;15.93;13.82;;;;;;;;;;6126992;23;20084;-67
2021/07/12 07:10:19;;;;;;;16.90;12.98;;;;;;;;;;6126819;23;20041;-68
2021/07/12 07:12:44;;;;;;;18.60;13.45;;;;;;;;;;6100696;23;19998;-67
2021/07/12 07:15:10;;;;;;;17.42;13.80;;;;;;;;;;6126717;23;20006;-67
2021/07/12 07:17:36;;;;;;;14.80;12.30;;;;;;;;;;6126704;23;19998;-68
2021/07/12 07:20:02;;;;;;;16.83;13.65;;;;;;;;;;6126770;23;20006;-68
2021/07/12 07:22:27;;;;;;;16.92;14.10;;;;;;;;;;6126493;23;20025;-68
2021/07/12 07:24:53;;;;;;;16.55;13.13;;;;;;;;;;6126885;23;20006;-67
2021/07/12 07:27:18;;;;;;;15.85;13.05;;;;;;;;;;6126724;23;20379;-68
2021/07/12 07:29:44;;;;;;;15.00;13.25;;;;;;;;;;6126233;23;20008;-68
2021/07/12 07:32:10;;;;;;;14.38;12.82;;;;;;;;;;6126627;23;20041;-68
2021/07/12 07:34:36;;;;;;;16.00;13.43;;;;;;;;;;6126533;23;20033;-67
2021/07/12 07:37:01;;;;;;;17.90;13.00;;;;;;;;;;6126485;23;19998;-67
2021/07/12 07:39:27;;;;;;;15.43;13.30;;;;;;;;;;6126468;23;20089;-67
2021/07/12 07:41:53;;;;;;;15.25;12.63;;;;;;;;;;6126866;23;19998;-67
2021/07/12 07:44:19;;;;;;;16.75;11.75;;;;;;;;;;6126522;23;20014;-67
2021/07/12 07:46:44;;;;;;;18.08;12.43;;;;;;;;;;6126249;23;20412;-67
2021/07/12 07:49:10;;;;;;;12.90;11.40;;;;;;;;;;6126386;23;20009;-67
2021/07/12 07:51:37;;;;;;;12.80;10.45;;;;;;;;;;6126349;23;20002;-67
2021/07/12 07:54:06;;;;;;;12.50;11.23;;;;;;;;;;6126463;23;20085;-66
2021/07/12 07:56:31;;;;;;;12.70;10.85;;;;;;;;;;6125959;23;20006;-67
2021/07/12 07:58:59;;;;;;;16.33;12.63;;;;;;;;;;6126598;23;20002;-67
2021/07/12 08:01:25;;;;;;;13.23;11.60;;;;;;;;;;6126469;23;20013;-67
2021/07/12 08:03:50;;;;;;;12.70;10.70;;;;;;;;;;6126379;23;20014;-69
2021/07/12 08:06:17;;;;;;;12.15;10.85;;;;;;;;;;6126446;23;20086;-70
2021/07/12 08:08:43;;;;;;;14.95;11.05;;;;;;;;;;6126676;23;20311;-68
2021/07/12 08:11:09;;;;;;;12.43;11.13;;;;;;;;;;6126379;23;20064;-67
2021/07/12 08:13:35;;;;;;;13.25;11.15;;;;;;;;;;6126539;23;20374;-67
2021/07/12 08:16:00;;;;;;;13.77;11.95;;;;;;;;;;6125880;23;20374;-68
2021/07/12 08:18:26;;;;;;;11.15;10.07;;;;;;;;;;6126440;23;20049;-68
2021/07/12 08:20:51;;;;;;;11.50;10.32;;;;;;;;;;6126200;23;20418;-68
2021/07/12 08:23:18;;;;;;;13.57;10.38;;;;;;;;;;6126524;23;20438;-68
2021/07/12 08:25:45;;;;;;;11.75;10.50;;;;;;;;;;6124726;23;20009;-68
2021/07/12 08:28:10;;;;;;;11.43;10.25;;;;;;;;;;6126279;23;20033;-68
2021/07/12 08:30:36;;;;;;;11.82;9.80;;;;;;;;;;6126097;23;19998;-68
2021/07/12 08:33:02;;;;;;;10.90;9.82;;;;;;;;;;6100611;23;20089;-68
2021/07/12 08:35:27;;;;;;;11.57;10.15;;;;;;;;;;6126462;23;20323;-68
2021/07/12 08:37:54;;;;;;;13.23;10.23;;;;;;;;;;6126004;23;20067;-68
2021/07/12 08:40:21;;;;;;;13.02;9.95;;;;;;;;;;6126475;23;20006;-68
2021/07/12 08:42:48;;;;;;;14.02;10.18;;;;;;;;;;6128152;23;20002;-68
2021/07/12 08:45:14;;;;;;;11.73;10.35;;;;;;;;;;6128693;23;20009;-70
2021/07/12 08:47:40;;;;;;;11.50;9.88;;;;;;;;;;6128049;23;20010;-70
2021/07/12 08:50:06;;;;;;;11.25;9.65;;;;;;;;;;6102432;23;20326;-71
2021/07/12 08:52:31;;;;;;;11.82;9.50;;;;;;;;;;6102117;23;20006;-71
2021/07/12 08:54:57;;;;;;;10.52;9.40;;;;;;;;;;6126951;23;19993;-71
2021/07/12 08:57:23;;;;;;;9.85;8.85;;;;;;;;;;6127405;23;20014;-70
2021/07/12 08:59:54;;;;;;;9.90;8.85;;;;;;;;;;6128139;23;20002;-70
2021/07/12 09:02:20;;;;;;;9.02;8.13;;;;;;;;;;6102284;23;20014;-71
2021/07/12 09:04:45;;;;;;;8.88;7.95;;;;;;;;;;6128291;23;20005;-70
2021/07/12 09:07:12;;;;;;;7.57;6.88;;;;;;;;;;6127752;23;20006;-71
2021/07/12 09:09:38;;;;;;;8.35;7.68;;;;;;;;;;6128038;23;20002;-71
2021/07/12 09:12:11;;;;;;;8.27;7.47;;;;;;;;;;6127476;23;20069;-70
2021/07/12 09:14:39;;;;;;;8.57;7.80;;;;;;;;;;6128335;23;20001;-69
2021/07/12 09:17:05;;;;;;;8.25;7.55;;;;;;;;;;6102019;23;20080;-70
2021/07/12 09:19:35;;;;;;;8.82;7.93;;;;;;;;;;6127949;23;20037;-71
2021/07/12 09:22:00;;;;;;;7.93;7.18;;;;;;;;;;6127906;23;20052;-71
2021/07/12 09:24:50;;;;;;;10.75;7.38;;;;;;;;;;6127834;23;20418;-71
2021/07/12 09:27:18;;;;;;;7.68;7.03;;;;;;;;;;6127803;23;20006;-70
2021/07/12 09:29:46;;;;;;;9.25;7.35;;;;;;;;;;6128008;23;20072;-70
2021/07/12 09:32:14;;;;;;;8.52;7.63;;;;;;;;;;6127695;23;20009;-70
2021/07/12 09:34:40;;;;;;;7.78;7.07;;;;;;;;;;6101854;23;20021;-70
2021/07/12 09:37:07;;;;;;;8.32;7.43;;;;;;;;;;6127778;23;20013;-70
2021/07/12 09:39:39;;;;;;;8.23;7.32;;;;;;;;;;6127150;23;20052;-69
2021/07/12 09:42:06;;;;;;;8.00;7.22;;;;;;;;;;6100724;23;20065;-70
2021/07/12 09:44:32;;;;;;;9.70;8.07;;;;;;;;;;6126879;23;19998;-70
2021/07/12 09:47:02;;;;;;;8.27;7.43;;;;;;;;;;6126633;23;20006;-70
2021/07/12 09:49:28;;;;;;;;;;;;;;;;;;6126231;23;20063;-70
2021/07/12 09:51:55;;;;;;;9.10;8.30;;;;;;;;;;6125175;23;19988;-70
2021/07/12 09:54:26;;;;;;;8.48;7.68;;;;;;;;;;6124321;23;20012;-70
2021/07/12 09:56:54;;;;;;;8.27;7.53;;;;;;;;;;6126703;23;20014;-70
2021/07/12 09:59:20;;;;;;;8.60;7.35;;;;;;;;;;6126212;23;20018;-70
2021/07/12 10:01:55;;;;;;;8.40;7.60;;;;;;;;;;6127561;23;20010;-70
2021/07/12 10:04:21;;;;;;;8.35;7.60;;;;;;;;;;6101680;23;20010;-70
2021/07/12 10:06:47;;;;;;;18.70;8.77;;;;;;;;;;6127257;23;20422;-70
2021/07/12 10:09:14;;;;;;;10.60;7.63;;;;;;;;;;6101559;23;20028;-70
2021/07/12 10:11:40;;;;;;;12.02;7.50;;;;;;;;;;6127430;23;20005;-70
2021/07/12 10:14:06;;;;;;;7.25;6.65;;;;;;;;;;6127531;23;20493;-70
2021/07/12 10:16:31;;;;;;;8.23;7.53;;;;;;;;;;6127323;23;19994;-70
2021/07/12 10:18:58;;;;;;;7.20;6.55;;;;;;;;;;6127205;23;20053;-70
2021/07/12 10:21:23;;;;;;;8.15;7.45;;;;;;;;;;6127225;23;20423;-70
2021/07/12 10:23:55;;;;;;;7.65;6.93;;;;;;;;;;6127215;23;20017;-70
2021/07/12 10:26:39;;;;;;;9.73;7.15;;;;;;;;;;6127024;23;20084;-70
2021/07/12 10:29:21;;;;;;;8.90;8.13;;;;;;;;;;6127299;23;20057;-70
2021/07/12 10:32:13;;;;;;;9.50;8.63;;;;;;;;;;6127081;23;20418;-70
2021/07/12 10:34:52;;;;;;;8.95;8.15;;;;;;;;;;6122927;23;20014;-70
2021/07/12 10:37:33;;;;;;;15.48;13.48;;;;;;;;;;6127239;23;20002;-70
2021/07/12 10:40:11;;;;;;;8.00;7.40;;;;;;;;;;6127170;23;20394;-70
2021/07/12 10:42:50;;;;;;;7.38;6.85;;;;;;;;;;6127255;23;20013;-70
2021/07/12 10:45:17;;;;;;;6.35;5.85;;;;;;;;;;6127201;23;20002;-70
2021/07/12 10:47:56;;;;;;;5.97;5.57;;;;;;;;;;6127012;23;20326;-70
2021/07/12 10:50:37;;;;;;;7.55;6.78;;;;;;;;;;6125322;23;20010;-70
2021/07/12 10:53:03;;;;;;;7.40;6.70;;;;;;;;;;6126889;23;20002;-70
2021/07/12 10:55:30;;;;;;;8.52;7.72;;;;;;;;;;6126875;23;19998;-70
2021/07/12 10:58:16;;;;;;;7.38;6.82;;;;;;;;;;6077749;23;20018;-69
2021/07/12 11:00:42;;;;;;;6.90;6.30;;;;;;;;;;6095692;23;20010;-70
2021/07/12 11:03:27;;;;;;;7.93;7.18;;;;;;;;;;6097549;23;20320;-69
2021/07/12 11:05:53;;;;;;;6.82;6.25;;;;;;;;;;6097188;23;20011;-70
2021/07/12 11:08:37;;;;;;;6.70;6.20;;;;;;;;;;6097507;23;20086;-70
2021/07/12 11:11:02;;;;;;;7.22;6.53;;;;;;;;;;6097356;23;20010;-70
2021/07/12 11:13:47;;;;;;;7.05;6.45;;;;;;;;;;6097368;23;19998;-70
2021/07/12 11:16:14;;;;;;;7.20;6.50;;;;;;;;;;6095965;23;20010;-70
2021/07/12 11:18:39;;;;;;;6.28;5.85;;;;;;;;;;6097538;23;20034;-70
2021/07/12 11:21:06;;;;;;;7.07;6.47;;;;;;;;;;6095978;23;20014;-70
2021/07/12 11:23:50;;;;;;;7.75;7.00;;;;;;;;;;6097280;23;20002;-70
2021/07/12 11:26:26;;;;;;;6.55;6.05;;;;;;;;;;6096003;23;20007;-70
2021/07/12 11:28:53;;;;;;;7.82;7.20;;;;;;;;;;6097228;23;20018;-70
2021/07/12 11:31:37;;;;;;;6.57;6.00;;;;;;;;;;6097352;23;20419;-70
2021/07/12 11:34:03;;;;;;;8.32;7.53;;;;;;;;;;6097242;23;20802;-70
2021/07/12 11:36:29;;;;;;;8.20;7.50;;;;;;;;;;6071713;23;20003;-70
2021/07/12 11:38:54;;;;;;;7.55;6.95;;;;;;;;;;6097107;23;20013;-70
2021/07/12 11:41:23;;;;;;;7.53;6.85;;;;;;;;;;6097305;23;20003;-70
2021/07/12 11:44:24;;;;;;;8.50;6.55;;;;;;;;;;6072411;23;20461;-70
2021/07/12 11:46:50;;;;;;;7.55;6.85;;;;;;;;;;6037477;23;20138;-70
2021/07/12 11:49:17;;;;;;;8.30;7.60;;;;;;;;;;6083842;23;20326;-70
2021/07/12 11:51:43;;;;;;;7.97;7.38;;;;;;;;;;6097526;23;20375;-70
2021/07/12 11:54:23;;;;;;;8.15;7.45;;;;;;;;;;6097381;23;20034;-70
2021/07/12 11:56:57;;;;;;;7.85;7.15;;;;;;;;;;6106201;23;20426;-70
2021/07/12 11:59:27;;;;;;;7.80;7.15;;;;;;;;;;6124967;23;20017;-70
2021/07/12 12:02:09;;;;;;;7.57;6.88;;;;;;;;;;6126566;23;20010;-70
2021/07/12 12:04:43;;;;;;;7.45;6.88;;;;;;;;;;6126444;23;20133;-70
2021/07/12 12:07:22;;;;;;;7.68;7.07;;;;;;;;;;6126538;23;20009;-70
2021/07/12 12:09:48;;;;;;;8.05;7.28;;;;;;;;;;6126589;23;20010;-70
2021/07/12 12:12:19;;;;;;;7.00;6.40;;;;;;;;;;6126516;23;20026;-70
2021/07/12 12:14:44;;;;;;;6.68;5.80;;;;;;;;;;6126430;23;20006;-70
2021/07/12 12:17:12;;;;;;;6.43;5.93;;;;;;;;;;6128938;23;20028;-70
2021/07/12 12:19:37;;;;;;;6.30;5.75;;;;;;;;;;6129721;23;20523;-70
2021/07/12 12:22:03;;;;;;;5.22;4.70;;;;;;;;;;6129671;23;19998;-70
2021/07/12 12:24:28;;;;;;;4.68;4.38;;;;;;;;;;6129536;23;20010;-69
2021/07/12 12:26:54;;;;;;;5.75;5.03;;;;;;;;;;6128079;23;20009;-70
2021/07/12 12:29:21;;;;;;;4.80;4.50;;;;;;;;;;6103633;23;20033;-70
2021/07/12 12:31:46;;;;;;;5.05;4.65;;;;;;;;;;6103812;23;20077;-70
2021/07/12 12:34:13;;;;;;;5.82;5.35;;;;;;;;;;6103620;23;20356;-70
2021/07/12 12:36:42;;;;;;;4.78;4.28;;;;;;;;;;6129135;23;20002;-69
2021/07/12 12:39:09;;;;;;;4.93;4.18;;;;;;;;;;6129392;23;20009;-68
2021/07/12 12:41:36;;;;;;;3.88;3.58;;;;;;;;;;6128912;23;20060;-69
2021/07/12 12:44:05;;;;;;;3.65;3.45;;;;;;;;;;6127716;23;20006;-71
2021/07/12 12:46:31;;;;;;;4.05;3.85;;;;;;;;;;6129259;23;20009;-69
2021/07/12 12:48:58;;;;;;;3.70;3.50;;;;;;;;;;6129648;23;20009;-69
2021/07/12 12:51:33;;;;;;;3.80;3.60;;;;;;;;;;6119810;23;19998;-69
2021/07/12 12:54:00;;;;;;;3.90;3.60;;;;;;;;;;6124857;23;20330;-70
2021/07/12 12:56:25;;;;;;;3.90;3.60;;;;;;;;;;6124718;23;20787;-69
2021/07/12 12:58:58;;;;;;;3.67;3.38;;;;;;;;;;6125580;23;20092;-70
2021/07/12 13:01:30;;;;;;;3.85;3.55;;;;;;;;;;6130026;23;20013;-70
2021/07/12 13:04:03;;;;;;;3.38;3.17;;;;;;;;;;6129673;23;20013;-69
2021/07/12 13:06:39;;;;;;;3.92;3.58;;;;;;;;;;6129808;23;20006;-70
2021/07/12 13:09:06;;;;;;;3.53;3.10;;;;;;;;;;6129849;23;20010;-69
2021/07/12 13:11:33;;;;;;;4.00;3.70;;;;;;;;;;6129189;23;20001;-69
2021/07/12 13:13:59;;;;;;;3.45;3.25;;;;;;;;;;6129362;23;20006;-70
2021/07/12 13:16:26;;;;;;;5.60;5.13;;;;;;;;;;6129353;23;19994;-70
2021/07/12 13:18:52;;;;;;;6.90;6.20;;;;;;;;;;6129309;23;20010;-70
2021/07/12 13:21:17;;;;;;;5.00;4.60;;;;;;;;;;6129590;23;20382;-70
2021/07/12 13:23:46;;;;;;;4.85;4.22;;;;;;;;;;6129543;23;20006;-69
2021/07/12 13:26:12;;;;;;;3.67;3.10;;;;;;;;;;6128208;23;20002;-69
2021/07/12 13:28:39;;;;;;;3.38;3.08;;;;;;;;;;6102030;23;20014;-69
2021/07/12 13:31:04;;;;;;;11.07;7.85;;;;;;;;;;6127980;23;19998;-69
2021/07/12 13:33:30;;;;;;;14.23;9.30;;;;;;;;;;6101797;23;20449;-69
2021/07/12 13:35:56;;;;;;;25.00;18.33;;;;;;;;;;6127764;23;19999;-69
2021/07/12 13:38:22;;;;;;;9.15;8.25;;;;;;;;;;6127762;23;20006;-69
2021/07/12 13:40:48;;;;;;;8.95;7.78;;;;;;;;;;6127551;23;20001;-69
2021/07/12 13:43:15;;;;;;;11.77;8.70;;;;;;;;;;6101623;23;20434;-69
2021/07/12 13:45:40;;;;;;;8.98;7.65;;;;;;;;;;6126604;23;20002;-69
2021/07/12 13:48:06;;;;;;;4.30;3.95;;;;;;;;;;6127103;23;20085;-69
2021/07/12 13:50:32;;;;;;;3.55;3.35;;;;;;;;;;6127185;23;20383;-69
2021/07/12 13:52:58;;;;;;;6.53;5.93;;;;;;;;;;6127588;23;20038;-69
2021/07/12 13:55:24;;;;;;;11.40;7.50;;;;;;;;;;6126065;23;20005;-69
2021/07/12 13:57:52;;;;;;;5.85;5.35;;;;;;;;;;6127368;23;20017;-70
2021/07/12 14:00:20;;;;;;;3.78;3.47;;;;;;;;;;6127573;23;20009;-70
2021/07/12 14:02:45;;;;;;;3.22;3.03;;;;;;;;;;6101587;23;20041;-70
2021/07/12 14:05:12;;;;;;;7.35;6.03;;;;;;;;;;6127412;23;20005;-70
2021/07/12 14:07:38;;;;;;;4.50;4.10;;;;;;;;;;6127557;23;20061;-70
2021/07/12 14:10:05;;;;;;;5.57;5.03;;;;;;;;;;6127482;23;20431;-70
2021/07/12 14:12:31;;;;;;;8.43;5.50;;;;;;;;;;6101333;23;20002;-70
2021/07/12 14:14:56;;;;;;;6.93;5.80;;;;;;;;;;6127255;23;20056;-70
2021/07/12 14:17:22;;;;;;;4.70;4.10;;;;;;;;;;6127376;23;20001;-70
2021/07/12 14:19:47;;;;;;;4.28;3.38;;;;;;;;;;6127272;23;20390;-70
2021/07/12 14:22:13;;;;;;;3.80;3.50;;;;;;;;;;6127464;23;20507;-70
2021/07/12 14:24:39;;;;;;;3.67;3.38;;;;;;;;;;6127395;23;20088;-70
2021/07/12 14:27:05;;;;;;;3.45;3.03;;;;;;;;;;6127345;23;19998;-69
2021/07/12 14:29:31;;;;;;;3.33;3.03;;;;;;;;;;6127545;23;20006;-70
2021/07/12 14:31:56;;;;;;;3.45;3.15;;;;;;;;;;6127263;23;20423;-69
2021/07/12 14:34:22;;;;;;;4.53;3.00;;;;;;;;;;6127251;23;20002;-70
2021/07/12 14:36:47;;;;;;;3.72;3.40;;;;;;;;;;6126961;23;20006;-70
2021/07/12 14:39:13;;;;;;;2.75;2.55;;;;;;;;;;6127244;23;20006;-70
2021/07/12 14:41:40;;;;;;;3.50;2.58;;;;;;;;;;6127270;23;20363;-70
2021/07/12 14:44:06;;;;;;;2.50;2.40;;;;;;;;;;6127213;23;20029;-70
2021/07/12 14:46:31;;;;;;;3.15;2.85;;;;;;;;;;6127077;23;20427;-70